Time;durP1;ratioP1;P1;durP2;ratioP2;P2;SDS_P1;SDS_P2;PMS_P1;PMS_P2;Temp;Humidity;BMP_temperature;BMP_pressure;BME280_temperature;BME280_humidity;BME280_pressure;Samples;Min_cycle;Max_cycle;Signal;HPM_P1;HPM_P2
2021/08/31 00:00:40;;;;;;;11.53;8.28;;;;;;;;;;352371;152;866718;-67
2021/08/31 00:16:45;;;;;;;13.71;8.38;;;;;;;19.01;74.91;99179.93;371213;142;881175;-62
2021/08/31 00:17:47;;;;;;;11.79;7.13;;;;;;;18.89;74.96;99180.58;364025;146;858505;-63
2021/08/31 00:18:49;;;;;;;10.95;6.70;;;;;;;18.91;74.96;99187.45;363259;146;857216;-62
2021/08/31 00:19:51;;;;;;;11.21;7.01;;;;;;;18.99;74.88;99187.05;360770;145;858943;-62
2021/08/31 00:20:53;;;;;;;11.81;6.21;;;;;;;18.95;74.60;99182.86;363976;144;865740;-62
2021/08/31 00:21:55;;;;;;;10.48;6.21;;;;;;;19.08;74.53;99188.33;362591;144;857309;-62
2021/08/31 00:22:57;;;;;;;10.42;6.21;;;;;;;19.08;74.53;99188.33;363685;144;859013;-62
2021/08/31 00:23:59;;;;;;;9.24;6.59;;;;;;;19.37;73.30;99215.58;363787;144;865875;-63
2021/08/31 00:25:02;;;;;;;15.60;7.25;;;;;;;;;;361824;145;858990;-62
2021/08/31 00:26:04;;;;;;;13.54;6.95;;;;;;;;;;363059;144;859000;-62
2021/08/31 00:27:06;;;;;;;13.02;6.89;;;;;;;;;;362051;144;857237;-63
2021/08/31 00:28:08;;;;;;;10.56;6.84;;;;;;;;;;361992;145;857405;-62
2021/08/31 00:29:09;;;;;;;10.26;7.65;;;;;;;;;;364875;144;867190;-62
2021/08/31 00:30:12;;;;;;;14.19;8.53;;;;;;;;;;363315;146;860211;-63
2021/08/31 00:31:13;;;;;;;12.98;8.35;;;;;;;;;;363076;145;857381;-62
2021/08/31 00:32:15;;;;;;;13.10;7.74;;;;;;;;;;364777;145;859645;-63
2021/08/31 00:33:16;;;;;;;12.71;8.16;;;;;;;;;;364289;145;864931;-62
2021/08/31 00:34:18;;;;;;;15.86;8.71;;;;;;;;;;360809;145;858333;-62
2021/08/31 00:35:20;;;;;;;14.67;7.69;;;;;;;;;;357285;147;859028;-63
2021/08/31 00:36:22;;;;;;;13.67;8.11;;;;;;;;;;358827;147;857350;-62
2021/08/31 00:37:23;;;;;;;15.66;8.37;;;;;;;;;;358420;147;857188;-63
2021/08/31 00:38:25;;;;;;;13.17;8.59;;;;;;;;;;359291;147;866011;-63
2021/08/31 00:39:27;;;;;;;12.91;8.59;;;;;;;;;;357918;149;857328;-62
2021/08/31 00:40:30;;;;;;;13.99;8.73;;;;;;;;;;357620;147;857386;-63
2021/08/31 00:41:31;;;;;;;15.19;8.88;;;;;;;;;;356322;148;866184;-62
2021/08/31 00:42:33;;;;;;;11.81;8.64;;;;;;;;;;358498;148;865114;-62
2021/08/31 00:43:44;;;;;;;14.57;8.76;;;;;;;;;;358268;147;857596;-61
2021/08/31 00:44:46;;;;;;;15.53;9.53;;;;;;;;;;356835;148;860245;-62
2021/08/31 00:45:48;;;;;;;16.29;9.30;;;;;;;;;;358794;147;859078;-62
2021/08/31 00:46:53;;;;;;;13.11;9.00;;;;;;;;;;357101;147;865041;-62
2021/08/31 00:47:54;;;;;;;15.10;9.58;;;;;;;;;;357864;147;858533;-63
2021/08/31 00:48:56;;;;;;;13.21;8.97;;;;;;;;;;359616;147;858184;-63
2021/08/31 00:49:58;;;;;;;14.21;8.50;;;;;;;;;;358584;147;857354;-63
2021/08/31 00:51:00;;;;;;;13.17;8.97;;;;;;;;;;354872;150;866220;-63
2021/08/31 00:52:01;;;;;;;13.80;8.84;;;;;;;;;;358162;148;865091;-63
2021/08/31 00:53:03;;;;;;;15.25;8.63;;;;;;;;;;358812;147;857214;-62
2021/08/31 00:54:05;;;;;;;13.56;8.78;;;;;;;;;;358679;149;864945;-63
2021/08/31 00:55:07;;;;;;;12.49;8.94;;;;;;;;;;356530;148;859108;-63
2021/08/31 00:56:09;;;;;;;12.20;8.23;;;;;;;;;;358712;147;865436;-63
2021/08/31 00:57:11;;;;;;;14.56;8.68;;;;;;;;;;358428;150;858832;-62
2021/08/31 00:58:13;;;;;;;13.96;7.89;;;;;;;;;;350478;150;865067;-63
2021/08/31 00:59:15;;;;;;;16.44;8.76;;;;;;;;;;349698;151;866777;-63
2021/08/31 01:00:17;;;;;;;13.13;8.66;;;;;;;;;;356972;147;858786;-62
2021/08/31 01:01:19;;;;;;;12.23;8.19;;;;;;;;;;357997;150;857267;-62
2021/08/31 01:02:21;;;;;;;16.77;8.89;;;;;;;;;;358795;148;859038;-62
2021/08/31 01:03:22;;;;;;;12.94;8.52;;;;;;;;;;357402;147;864905;-62
2021/08/31 01:04:25;;;;;;;13.45;8.59;;;;;;;;;;358442;147;858971;-62
2021/08/31 01:05:28;;;;;;;11.99;8.63;;;;;;;;;;359360;148;859559;-62
2021/08/31 01:06:30;;;;;;;12.96;8.72;;;;;;;;;;356465;147;857363;-62
2021/08/31 01:07:32;;;;;;;12.24;8.43;;;;;;;;;;357087;147;858313;-63
2021/08/31 01:08:33;;;;;;;16.79;7.99;;;;;;;;;;358526;150;857290;-63
2021/08/31 01:09:35;;;;;;;11.51;8.22;;;;;;;;;;358471;148;856598;-62
2021/08/31 01:10:37;;;;;;;13.05;8.55;;;;;;;;;;356191;147;865224;-63
2021/08/31 01:11:39;;;;;;;13.93;8.14;;;;;;;;;;354901;147;857181;-63
2021/08/31 01:12:40;;;;;;;13.27;8.14;;;;;;;;;;361978;147;864854;-63
2021/08/31 01:13:42;;;;;;;14.76;8.37;;;;;;;;;;358978;147;865605;-63
2021/08/31 01:14:43;;;;;;;16.74;8.72;;;;;;;;;;357323;147;858385;-62
2021/08/31 01:15:46;;;;;;;13.49;8.17;;;;;;;;;;358688;150;857179;-63
2021/08/31 01:16:48;;;;;;;13.64;8.89;;;;;;;;;;354622;150;857957;-62
2021/08/31 01:17:50;;;;;;;15.73;8.14;;;;;;;;;;353250;149;858743;-62
2021/08/31 01:18:51;;;;;;;13.54;8.39;;;;;;;;;;357496;147;865819;-62
2021/08/31 01:19:53;;;;;;;14.71;8.84;;;;;;;;;;357351;147;857765;-63
2021/08/31 01:20:56;;;;;;;11.20;7.67;;;;;;;;;;357570;148;859499;-63
2021/08/31 01:21:58;;;;;;;14.19;8.76;;;;;;;;;;357614;147;857367;-63
2021/08/31 01:23:00;;;;;;;14.01;8.99;;;;;;;;;;357128;148;857999;-63
2021/08/31 01:24:02;;;;;;;13.24;8.53;;;;;;;;;;358007;147;865024;-63
2021/08/31 01:25:05;;;;;;;14.53;8.55;;;;;;;;;;356542;147;857870;-63
2021/08/31 01:26:06;;;;;;;14.09;8.48;;;;;;;;;;358694;150;865803;-64
2021/08/31 01:27:08;;;;;;;12.21;8.18;;;;;;;;;;357713;150;857332;-64
2021/08/31 01:28:12;;;;;;;14.20;8.65;;;;;;;;;;355136;148;858253;-63
2021/08/31 01:29:14;;;;;;;15.19;8.79;;;;;;;;;;357653;147;857743;-64
2021/08/31 01:30:17;;;;;;;12.79;8.89;;;;;;;;;;355400;148;857111;-64
2021/08/31 01:31:18;;;;;;;15.46;8.01;;;;;;;;;;350313;151;857325;-63
2021/08/31 01:32:20;;;;;;;15.03;8.72;;;;;;;;;;357663;147;866321;-63
2021/08/31 01:33:23;;;;;;;12.97;8.54;;;;;;;;;;357560;147;858147;-63
2021/08/31 01:34:24;;;;;;;14.51;9.06;;;;;;;;;;358417;148;858934;-64
2021/08/31 01:35:26;;;;;;;16.01;9.04;;;;;;;;;;356527;149;866564;-64
2021/08/31 01:36:29;;;;;;;14.34;8.04;;;;;;;;;;359393;147;860009;-64
2021/08/31 01:37:31;;;;;;;13.79;9.27;;;;;;;;;;354829;147;858837;-64
2021/08/31 01:38:32;;;;;;;16.55;8.94;;;;;;;;;;358814;148;865146;-64
2021/08/31 01:39:34;;;;;;;17.00;8.51;;;;;;;;;;356792;147;857325;-64
2021/08/31 01:40:36;;;;;;;12.86;8.87;;;;;;;;;;358660;147;859570;-63
2021/08/31 01:41:38;;;;;;;16.31;8.79;;;;;;;;;;353800;148;857307;-63
2021/08/31 01:42:39;;;;;;;13.88;7.95;;;;;;;;;;357295;147;857265;-64
2021/08/31 01:43:41;;;;;;;17.16;9.09;;;;;;;;;;357029;148;858104;-64
2021/08/31 01:44:42;;;;;;;15.56;8.32;;;;;;;;;;357170;147;857221;-64
2021/08/31 01:45:44;;;;;;;12.21;8.36;;;;;;;;;;357363;148;857282;-63
2021/08/31 01:46:48;;;;;;;15.27;8.98;;;;;;;;;;356142;147;866290;-63
2021/08/31 01:47:49;;;;;;;15.67;9.04;;;;;;;;;;356827;150;864939;-63
2021/08/31 01:48:51;;;;;;;13.00;8.84;;;;;;;;;;357786;149;866694;-63
2021/08/31 01:49:52;;;;;;;12.96;8.73;;;;;;;;;;355858;147;858549;-64
2021/08/31 01:50:56;;;;;;;14.18;7.97;;;;;;;;;;358840;148;864990;-64
2021/08/31 01:51:58;;;;;;;15.98;8.87;;;;;;;;;;358697;147;859537;-63
2021/08/31 01:52:59;;;;;;;15.09;8.64;;;;;;;;;;357592;148;866656;-64
2021/08/31 01:54:01;;;;;;;13.71;8.35;;;;;;;;;;357392;147;857207;-64
2021/08/31 01:55:06;;;;;;;13.09;8.43;;;;;;;;;;357993;150;857248;-64
2021/08/31 01:56:09;;;;;;;12.48;8.26;;;;;;;;;;355925;147;857215;-64
2021/08/31 01:57:11;;;;;;;20.05;8.50;;;;;;;;;;357936;147;857315;-64
2021/08/31 01:58:12;;;;;;;16.11;8.82;;;;;;;;;;358823;147;864938;-64
2021/08/31 01:59:14;;;;;;;13.70;8.45;;;;;;;;;;357400;149;858833;-64
2021/08/31 02:00:17;;;;;;;12.42;7.76;;;;;;;;;;357290;148;857751;-63
2021/08/31 02:01:19;;;;;;;12.24;7.66;;;;;;;;;;357903;148;859068;-63
2021/08/31 02:02:20;;;;;;;12.20;8.46;;;;;;;;;;359571;147;857242;-64
2021/08/31 02:03:22;;;;;;;12.66;7.26;;;;;;;;;;357792;147;857223;-64
2021/08/31 02:04:24;;;;;;;10.75;7.37;;;;;;;;;;354941;148;857335;-64
2021/08/31 02:05:26;;;;;;;11.78;7.56;;;;;;;;;;357938;147;857638;-64
2021/08/31 02:06:27;;;;;;;11.31;7.66;;;;;;;;;;358527;150;858952;-63
2021/08/31 02:07:29;;;;;;;13.50;8.04;;;;;;;;;;358935;147;857356;-64
2021/08/31 02:08:31;;;;;;;16.96;8.51;;;;;;;;;;359514;147;862040;-64
2021/08/31 02:09:32;;;;;;;14.07;7.32;;;;;;;;;;358506;147;865143;-63
2021/08/31 02:10:36;;;;;;;16.48;7.99;;;;;;;;;;357163;147;866761;-64
2021/08/31 02:11:37;;;;;;;10.74;7.36;;;;;;;;;;359456;147;859512;-64
2021/08/31 02:12:39;;;;;;;12.76;7.23;;;;;;;;;;358267;147;864891;-64
2021/08/31 02:13:41;;;;;;;9.69;7.34;;;;;;;;;;360522;147;858532;-64
2021/08/31 02:14:42;;;;;;;9.94;7.39;;;;;;;;;;356863;148;857290;-64
2021/08/31 02:15:44;;;;;;;13.64;7.53;;;;;;;;;;356966;147;859748;-63
2021/08/31 02:16:47;;;;;;;11.44;7.02;;;;;;;;;;358843;150;857595;-63
2021/08/31 02:17:49;;;;;;;15.22;7.98;;;;;;;;;;357454;148;857215;-62
2021/08/31 02:18:51;;;;;;;14.53;7.75;;;;;;;;;;357508;148;857264;-62
2021/08/31 02:19:52;;;;;;;11.93;7.33;;;;;;;;;;358031;148;858084;-62
2021/08/31 02:20:54;;;;;;;9.93;6.82;;;;;;;;;;360092;147;858121;-65
2021/08/31 02:21:56;;;;;;;16.41;8.01;;;;;;;;;;357906;147;857405;-65
2021/08/31 02:22:58;;;;;;;11.19;7.09;;;;;;;;;;357410;148;866451;-63
2021/08/31 02:23:59;;;;;;;10.61;7.42;;;;;;;;;;358123;147;866049;-62
2021/08/31 02:25:01;;;;;;;12.71;6.71;;;;;;;;;;358880;147;865503;-62
2021/08/31 02:26:03;;;;;;;10.95;7.19;;;;;;;;;;357703;148;858218;-62
2021/08/31 02:27:05;;;;;;;10.60;6.97;;;;;;;;;;356308;147;857229;-62
2021/08/31 02:28:07;;;;;;;12.23;7.15;;;;;;;;;;357127;147;858453;-63
2021/08/31 02:29:08;;;;;;;10.45;7.26;;;;;;;;;;356484;147;857082;-62
2021/08/31 02:30:11;;;;;;;11.55;7.24;;;;;;;;;;355751;147;858910;-62
2021/08/31 02:31:12;;;;;;;11.77;6.71;;;;;;;;;;349396;150;857304;-65
2021/08/31 02:32:14;;;;;;;11.88;7.08;;;;;;;;;;358837;147;857317;-63
2021/08/31 02:33:16;;;;;;;10.84;6.74;;;;;;;;;;357347;147;857802;-63
2021/08/31 02:34:17;;;;;;;10.69;6.81;;;;;;;;;;356585;148;857444;-63
2021/08/31 02:35:19;;;;;;;10.11;7.09;;;;;;;;;;357184;148;866777;-63
2021/08/31 02:36:21;;;;;;;10.92;6.97;;;;;;;;;;356705;148;857233;-63
2021/08/31 02:37:23;;;;;;;8.69;5.92;;;;;;;;;;359150;147;857258;-63
2021/08/31 02:38:24;;;;;;;9.21;6.26;;;;;;;;;;354944;148;865535;-63
2021/08/31 02:39:26;;;;;;;12.97;6.84;;;;;;;;;;357840;148;857679;-64
2021/08/31 02:40:28;;;;;;;10.90;5.96;;;;;;;;;;355213;147;857401;-63
2021/08/31 02:41:29;;;;;;;10.35;6.18;;;;;;;;;;358492;148;866933;-63
2021/08/31 02:42:31;;;;;;;11.02;6.79;;;;;;;;;;359217;147;857376;-63
2021/08/31 02:43:33;;;;;;;9.86;6.37;;;;;;;;;;356517;147;857860;-63
2021/08/31 02:44:35;;;;;;;9.59;6.56;;;;;;;;;;358567;147;865036;-63
2021/08/31 02:45:37;;;;;;;8.40;6.50;;;;;;;;;;361282;147;857329;-63
2021/08/31 02:46:40;;;;;;;9.56;6.73;;;;;;;;;;358093;148;865079;-62
2021/08/31 02:47:42;;;;;;;12.11;6.86;;;;;;;;;;357676;147;860350;-62
2021/08/31 02:48:44;;;;;;;9.94;6.29;;;;;;;;;;361753;147;857285;-63
2021/08/31 02:49:45;;;;;;;11.19;6.69;;;;;;;;;;358789;147;865545;-63
2021/08/31 02:50:49;;;;;;;8.42;6.06;;;;;;;;;;356712;147;857122;-63
2021/08/31 02:51:50;;;;;;;10.19;6.79;;;;;;;;;;358133;148;857255;-63
2021/08/31 02:52:52;;;;;;;10.75;6.40;;;;;;;;;;359150;149;866248;-63
2021/08/31 02:53:54;;;;;;;6.89;5.10;;;;;;;;;;357459;148;857296;-63
2021/08/31 02:54:55;;;;;;;9.16;5.99;;;;;;;;;;356833;147;858990;-63
2021/08/31 02:55:58;;;;;;;10.21;6.23;;;;;;;;;;355316;148;859444;-63
2021/08/31 02:57:01;;;;;;;7.39;5.67;;;;;;;;;;356633;148;857578;-63
2021/08/31 02:58:03;;;;;;;8.24;4.85;;;;;;;;;;357417;147;859355;-63
2021/08/31 02:59:05;;;;;;;14.46;5.99;;;;;;;;;;358706;147;857302;-63
2021/08/31 03:00:07;;;;;;;7.05;5.66;;;;;;;;;;357003;147;858884;-64
2021/08/31 03:02:29;;;;;;;7.38;5.04;;;;;;;;;;357739;147;859297;-64
2021/08/31 03:03:31;;;;;;;8.91;5.83;;;;;;;;;;357786;147;857329;-63
2021/08/31 03:04:35;;;;;;;6.86;5.16;;;;;;;;;;357481;148;857449;-65
2021/08/31 03:05:37;;;;;;;8.12;5.76;;;;;;;;;;355456;147;858968;-64
2021/08/31 03:06:40;;;;;;;8.65;5.41;;;;;;;;;;355747;147;857148;-63
2021/08/31 03:07:41;;;;;;;9.33;5.09;;;;;;;;;;358174;150;864687;-62
2021/08/31 03:08:43;;;;;;;10.20;5.67;;;;;;;;;;356914;147;857082;-63
2021/08/31 03:09:45;;;;;;;8.06;5.54;;;;;;;;;;357512;148;857082;-61
2021/08/31 03:10:48;;;;;;;11.07;5.56;;;;;;;;;;358417;150;857160;-64
2021/08/31 03:11:50;;;;;;;7.64;4.94;;;;;;;;;;358525;148;866869;-63
2021/08/31 03:12:51;;;;;;;8.73;5.72;;;;;;;;;;358551;148;866615;-63
2021/08/31 03:13:54;;;;;;;9.77;5.63;;;;;;;;;;358478;147;859080;-63
2021/08/31 03:14:55;;;;;;;9.84;6.41;;;;;;;;;;359949;147;857275;-62
2021/08/31 03:36:07;;;;;;;8.85;5.57;;;;;;;17.71;70.63;99279.12;373663;142;886931;-63
2021/08/31 03:37:09;;;;;;;11.19;5.26;;;;;;;17.54;70.58;99245.89;362761;146;857252;-64
2021/08/31 03:38:11;;;;;;;12.64;4.73;;;;;;;17.54;70.58;99245.89;363398;144;857200;-62
2021/08/31 03:39:13;;;;;;;9.05;4.52;;;;;;;17.55;71.17;99284.23;363820;145;858849;-64
2021/08/31 03:40:17;;;;;;;6.42;4.22;;;;;;;17.61;71.11;99286.55;364005;144;858963;-61
2021/08/31 03:41:19;;;;;;;7.01;4.11;;;;;;;17.61;71.11;99286.55;364399;145;858215;-63
2021/08/31 03:42:21;;;;;;;7.38;4.16;;;;;;;17.78;70.32;99279.66;363627;144;858953;-63
2021/08/31 03:43:23;;;;;;;8.61;4.69;;;;;;;17.80;69.71;99288.28;361338;144;864870;-62
2021/08/31 03:44:25;;;;;;;12.37;6.00;;;;;;;17.87;70.02;99288.84;361341;144;858858;-64
2021/08/31 03:45:27;;;;;;;10.25;5.37;;;;;;;18.00;69.90;99289.07;364920;145;859069;-64
2021/08/31 03:46:29;;;;;;;9.65;4.68;;;;;;;18.12;69.54;99277.19;363103;147;867627;-62
2021/08/31 03:47:31;;;;;;;9.89;5.20;;;;;;;18.17;67.97;99278.66;363255;144;857319;-63
2021/08/31 03:48:33;;;;;;;7.93;5.16;;;;;;;18.15;68.24;99280.52;355644;147;857460;-62
2021/08/31 03:49:35;;;;;;;11.49;5.25;;;;;;;18.20;68.53;99283.75;361146;147;856457;-61
2021/08/31 03:50:38;;;;;;;7.93;4.35;;;;;;;18.26;68.60;99285.20;365539;146;857327;-62
2021/08/31 03:51:39;;;;;;;7.98;4.71;;;;;;;18.31;68.44;99280.56;362910;145;857157;-63
2021/08/31 03:52:41;;;;;;;10.55;4.66;;;;;;;18.33;68.06;99280.51;363243;145;857157;-62
2021/08/31 03:53:43;;;;;;;6.46;4.21;;;;;;;;;;360175;145;864885;-60
2021/08/31 03:54:44;;;;;;;9.29;5.60;;;;;;;;;;363450;144;866560;-59
2021/08/31 03:55:46;;;;;;;13.84;4.64;;;;;;;;;;365309;145;859623;-60
2021/08/31 03:56:49;;;;;;;6.87;4.61;;;;;;;;;;362968;147;858995;-60
2021/08/31 03:57:50;;;;;;;10.59;4.94;;;;;;;;;;360846;146;866310;-59
2021/08/31 03:58:52;;;;;;;7.69;5.10;;;;;;;;;;361813;145;857417;-61
2021/08/31 03:59:53;;;;;;;7.14;5.02;;;;;;;;;;361191;145;857536;-62
2021/08/31 04:00:56;;;;;;;9.70;5.15;;;;;;;;;;361839;146;857700;-59
2021/08/31 04:01:58;;;;;;;8.56;5.19;;;;;;;;;;362860;146;865565;-61
2021/08/31 04:02:59;;;;;;;8.88;4.59;;;;;;;;;;363163;144;865227;-61
2021/08/31 04:04:01;;;;;;;16.41;5.90;;;;;;;;;;363376;147;857960;-60
2021/08/31 04:05:03;;;;;;;7.33;5.84;;;;;;;;;;360992;146;864877;-61
2021/08/31 04:06:05;;;;;;;8.79;5.45;;;;;;;;;;361778;145;857736;-60
2021/08/31 04:07:07;;;;;;;7.83;5.53;;;;;;;;;;363701;144;858778;-61
2021/08/31 04:08:09;;;;;;;8.70;5.29;;;;;;;;;;362600;144;857264;-60
2021/08/31 04:09:10;;;;;;;10.18;5.99;;;;;;;;;;360946;146;858971;-62
2021/08/31 04:10:13;;;;;;;12.07;5.35;;;;;;;;;;362332;145;858594;-62
2021/08/31 04:11:16;;;;;;;8.30;4.96;;;;;;;;;;357052;148;857149;-61
2021/08/31 04:12:18;;;;;;;10.95;6.23;;;;;;;;;;352586;150;857733;-64
2021/08/31 04:13:19;;;;;;;8.56;5.43;;;;;;;;;;351912;150;859970;-61
2021/08/31 04:14:21;;;;;;;12.63;5.81;;;;;;;;;;348769;152;858840;-63
2021/08/31 04:15:22;;;;;;;7.34;5.31;;;;;;;;;;364343;146;857162;-64
2021/08/31 04:16:25;;;;;;;9.21;5.44;;;;;;;;;;361460;146;857157;-65
2021/08/31 04:17:27;;;;;;;8.39;5.51;;;;;;;;;;361593;145;867165;-66
2021/08/31 04:18:29;;;;;;;8.59;5.82;;;;;;;;;;361067;147;858114;-64
2021/08/31 04:19:30;;;;;;;9.62;5.40;;;;;;;;;;361221;146;857261;-65
2021/08/31 04:20:32;;;;;;;11.85;6.21;;;;;;;;;;362472;145;859078;-66
2021/08/31 04:21:34;;;;;;;8.56;5.24;;;;;;;;;;362252;144;859150;-65
2021/08/31 04:36:12;;;;;;;8.04;5.01;;;;;;;17.21;69.86;99331.11;376931;142;880533;-63
2021/08/31 04:37:13;;;;;;;8.25;5.57;;;;;;;17.13;70.26;99329.78;366189;144;857269;-59
2021/08/31 04:38:15;;;;;;;9.59;5.42;;;;;;;17.14;70.02;99328.86;366793;144;857179;-62
2021/08/31 04:39:17;;;;;;;5.15;4.03;;;;;;;17.17;70.46;99326.94;366764;144;858928;-60
2021/08/31 04:40:21;;;;;;;7.58;4.02;;;;;;;17.13;70.09;99325.38;367386;144;858980;-62
2021/08/31 04:41:23;;;;;;;5.69;4.09;;;;;;;17.13;70.09;99325.38;367684;144;864861;-63
2021/08/31 04:42:25;;;;;;;6.13;4.10;;;;;;;16.93;70.48;99323.62;370397;144;857597;-66
2021/08/31 04:43:27;;;;;;;5.47;3.80;;;;;;;16.99;70.63;99333.00;367566;144;864857;-63
2021/08/31 04:44:31;;;;;;;10.36;4.17;;;;;;;16.87;71.09;99327.36;365790;144;859079;-60
2021/08/31 04:45:33;;;;;;;8.32;3.92;;;;;;;16.94;71.34;99326.17;367949;144;857781;-61
2021/08/31 04:46:37;;;;;;;8.40;3.70;;;;;;;17.13;70.84;99327.17;368934;144;856687;-60
2021/08/31 04:47:39;;;;;;;9.25;4.03;;;;;;;17.28;70.01;99328.22;364796;146;857804;-61
2021/08/31 04:48:41;;;;;;;5.73;3.89;;;;;;;17.44;69.82;99323.97;363304;145;857757;-61
2021/08/31 04:49:42;;;;;;;7.71;3.68;;;;;;;17.55;68.85;99331.34;367170;144;857773;-60
2021/08/31 04:50:45;;;;;;;8.23;3.98;;;;;;;17.60;67.80;99329.35;366233;144;864796;-60
2021/08/31 04:51:47;;;;;;;5.48;4.09;;;;;;;17.65;68.13;99334.39;366045;144;865441;-60
2021/08/31 04:52:49;;;;;;;8.93;4.38;;;;;;;17.64;67.32;99336.14;367777;144;865629;-60
2021/08/31 04:53:50;;;;;;;8.42;4.60;;;;;;;17.51;68.13;99333.27;367436;144;857391;-60
2021/08/31 04:54:52;;;;;;;9.33;4.64;;;;;;;17.59;67.84;99327.66;359411;147;864846;-60
2021/08/31 04:55:54;;;;;;;7.02;4.25;;;;;;;17.65;68.12;99332.60;363382;147;866000;-61
2021/08/31 04:56:56;;;;;;;7.64;4.68;;;;;;;17.73;67.41;99340.11;361781;146;865905;-61
2021/08/31 04:57:58;;;;;;;6.05;4.63;;;;;;;17.83;67.58;99331.81;359922;147;858972;-61
2021/08/31 04:58:59;;;;;;;8.01;5.01;;;;;;;17.62;67.41;99345.00;360674;147;866623;-60
2021/08/31 05:00:01;;;;;;;9.67;5.16;;;;;;;;;;361871;146;864668;-60
2021/08/31 05:01:03;;;;;;;7.15;4.92;;;;;;;;;;361844;147;857305;-60
2021/08/31 05:02:05;;;;;;;9.51;5.21;;;;;;;;;;362147;147;857256;-60
2021/08/31 05:03:07;;;;;;;13.16;6.03;;;;;;;;;;361687;146;857262;-60
2021/08/31 05:04:08;;;;;;;9.72;4.94;;;;;;;;;;362018;147;857350;-60
2021/08/31 05:05:10;;;;;;;6.76;4.76;;;;;;;;;;363628;147;864830;-59
2021/08/31 05:06:12;;;;;;;8.76;5.12;;;;;;;;;;364396;147;865130;-59
2021/08/31 05:07:14;;;;;;;11.07;5.08;;;;;;;;;;363461;146;857209;-59
2021/08/31 05:08:16;;;;;;;8.44;5.56;;;;;;;;;;364017;147;857274;-59
2021/08/31 05:09:17;;;;;;;8.03;5.09;;;;;;;;;;362368;147;857146;-59
2021/08/31 05:10:21;;;;;;;8.59;5.49;;;;;;;;;;364088;147;859002;-59
2021/08/31 05:11:23;;;;;;;10.91;6.26;;;;;;;;;;365561;146;857707;-60
2021/08/31 05:12:24;;;;;;;14.87;5.93;;;;;;;;;;362131;147;865135;-59
2021/08/31 05:13:26;;;;;;;7.35;5.91;;;;;;;;;;363364;147;865568;-60
2021/08/31 05:14:27;;;;;;;7.61;5.25;;;;;;;;;;361568;146;857889;-61
2021/08/31 05:15:29;;;;;;;9.43;5.79;;;;;;;;;;363454;147;865416;-59
2021/08/31 05:16:32;;;;;;;8.19;5.69;;;;;;;;;;363581;147;857309;-61
2021/08/31 05:17:34;;;;;;;9.53;6.14;;;;;;;;;;363405;146;857358;-59
2021/08/31 05:18:36;;;;;;;8.21;5.91;;;;;;;;;;361619;147;857293;-59
2021/08/31 05:19:37;;;;;;;7.25;5.39;;;;;;;;;;365445;147;857150;-60
2021/08/31 05:20:39;;;;;;;9.25;5.56;;;;;;;;;;363143;146;866509;-59
2021/08/31 05:21:43;;;;;;;12.94;5.14;;;;;;;;;;362554;146;857214;-60
2021/08/31 05:22:44;;;;;;;7.99;5.36;;;;;;;;;;362770;147;858010;-59
2021/08/31 05:23:46;;;;;;;9.56;5.43;;;;;;;;;;361652;147;864828;-59
2021/08/31 05:24:48;;;;;;;6.96;5.23;;;;;;;;;;361224;147;863039;-59
2021/08/31 05:25:50;;;;;;;9.75;5.67;;;;;;;;;;362465;146;866426;-59
2021/08/31 05:26:52;;;;;;;7.77;4.69;;;;;;;;;;360576;147;857266;-59
2021/08/31 05:27:54;;;;;;;7.72;5.18;;;;;;;;;;360380;147;859707;-59
2021/08/31 05:28:56;;;;;;;7.22;5.07;;;;;;;;;;360830;147;857743;-59
2021/08/31 05:29:58;;;;;;;6.34;4.64;;;;;;;;;;363349;147;859487;-59
2021/08/31 05:30:59;;;;;;;7.57;4.94;;;;;;;;;;361515;147;857333;-59
2021/08/31 05:32:01;;;;;;;6.44;3.91;;;;;;;;;;361455;146;857135;-61
2021/08/31 05:33:03;;;;;;;10.82;4.93;;;;;;;;;;359713;148;857174;-60
2021/08/31 05:34:04;;;;;;;7.31;4.76;;;;;;;;;;359540;148;857268;-60
2021/08/31 05:35:06;;;;;;;6.68;4.24;;;;;;;;;;361477;147;857395;-60
2021/08/31 05:36:08;;;;;;;5.99;4.42;;;;;;;;;;360994;146;857432;-60
2021/08/31 05:37:10;;;;;;;9.41;4.98;;;;;;;;;;359288;147;865496;-60
2021/08/31 05:38:11;;;;;;;13.04;5.27;;;;;;;;;;359834;147;857117;-61
2021/08/31 05:39:13;;;;;;;7.44;4.78;;;;;;;;;;361626;146;857282;-59
2021/08/31 05:40:15;;;;;;;7.69;4.84;;;;;;;;;;361299;147;857243;-60
2021/08/31 05:41:16;;;;;;;6.06;4.61;;;;;;;;;;363063;147;865047;-60
2021/08/31 05:42:18;;;;;;;5.61;4.37;;;;;;;;;;362386;147;865770;-60
2021/08/31 05:43:20;;;;;;;6.16;4.94;;;;;;;;;;363515;146;858454;-61
2021/08/31 05:44:21;;;;;;;6.49;4.69;;;;;;;;;;359353;147;858657;-60
2021/08/31 05:45:23;;;;;;;7.09;4.06;;;;;;;;;;360075;146;857533;-60
2021/08/31 05:46:24;;;;;;;9.99;4.81;;;;;;;;;;360790;146;859245;-60
2021/08/31 05:47:26;;;;;;;8.61;4.64;;;;;;;;;;361703;147;864826;-59
2021/08/31 05:48:28;;;;;;;9.63;4.64;;;;;;;;;;363041;147;858810;-60
2021/08/31 05:49:30;;;;;;;5.92;4.54;;;;;;;;;;363022;147;858844;-60
2021/08/31 05:50:32;;;;;;;6.36;4.53;;;;;;;;;;362117;146;857583;-60
2021/08/31 05:51:33;;;;;;;9.95;4.61;;;;;;;;;;365079;147;859401;-60
2021/08/31 05:52:35;;;;;;;6.89;4.54;;;;;;;;;;363421;147;857382;-60
2021/08/31 05:53:37;;;;;;;5.20;4.41;;;;;;;;;;360845;146;857266;-60
2021/08/31 05:54:38;;;;;;;7.32;4.29;;;;;;;;;;360937;147;857336;-60
2021/08/31 05:55:41;;;;;;;6.96;4.86;;;;;;;;;;365955;147;857049;-60
2021/08/31 05:56:43;;;;;;;8.02;4.81;;;;;;;;;;362030;146;865669;-60
2021/08/31 05:57:45;;;;;;;6.38;4.27;;;;;;;;;;363218;146;858405;-60
2021/08/31 05:58:47;;;;;;;6.90;4.64;;;;;;;;;;360539;147;864898;-60
2021/08/31 05:59:48;;;;;;;9.19;4.70;;;;;;;;;;359540;147;857223;-60
2021/08/31 06:00:50;;;;;;;5.60;4.68;;;;;;;;;;362332;146;857218;-60
2021/08/31 06:01:52;;;;;;;7.39;4.98;;;;;;;;;;361403;147;857150;-59
2021/08/31 06:02:56;;;;;;;8.31;5.10;;;;;;;;;;365187;147;864836;-60
2021/08/31 06:03:58;;;;;;;6.76;4.95;;;;;;;;;;362141;146;857354;-60
2021/08/31 06:04:59;;;;;;;7.61;5.30;;;;;;;;;;360768;146;858079;-59
2021/08/31 06:06:03;;;;;;;7.50;5.47;;;;;;;;;;361453;149;857666;-59
2021/08/31 06:07:07;;;;;;;5.71;4.75;;;;;;;;;;361867;147;857689;-60
2021/08/31 06:08:09;;;;;;;5.94;5.15;;;;;;;;;;360429;147;859501;-60
2021/08/31 06:09:10;;;;;;;8.46;4.89;;;;;;;;;;361015;147;859618;-60
2021/08/31 06:10:15;;;;;;;7.76;5.12;;;;;;;;;;362876;147;865971;-59
2021/08/31 06:11:18;;;;;;;8.29;5.07;;;;;;;;;;361701;147;857188;-61
2021/08/31 06:12:20;;;;;;;7.78;6.11;;;;;;;;;;362367;147;857300;-58
2021/08/31 06:13:21;;;;;;;8.44;5.69;;;;;;;;;;362611;147;857113;-59
2021/08/31 06:36:04;;;;;;;5.89;4.29;;;;;;;;;;369680;142;882262;-60
2021/08/31 06:37:06;;;;;;;7.41;4.31;;;;;;;;;;361617;147;857224;-61
2021/08/31 06:38:07;;;;;;;7.11;4.43;;;;;;;;;;363043;147;858245;-61
2021/08/31 06:39:09;;;;;;;7.19;4.75;;;;;;;;;;363470;147;857290;-63
2021/08/31 06:40:32;;;;;;;5.51;4.55;;;;;;;;;;362060;146;857262;-62
2021/08/31 06:41:33;;;;;;;7.83;5.01;;;;;;;;;;355010;150;857448;-63
2021/08/31 06:42:35;;;;;;;6.75;5.06;;;;;;;;;;353373;150;857321;-63
2021/08/31 06:43:36;;;;;;;7.13;4.45;;;;;;;;;;354573;149;857648;-64
2021/08/31 06:44:38;;;;;;;5.97;4.52;;;;;;;;;;356436;150;859142;-60
2021/08/31 06:45:40;;;;;;;6.73;4.85;;;;;;;;;;356441;150;858806;-60
2021/08/31 06:46:43;;;;;;;10.09;5.11;;;;;;;;;;355989;149;858189;-61
2021/08/31 06:47:45;;;;;;;6.15;3.14;;;;;;;;;;356830;149;859283;-60
2021/08/31 06:48:46;;;;;;;6.36;4.46;;;;;;;;;;354269;150;858564;-68
2021/08/31 06:49:48;;;;;;;12.12;4.68;;;;;;;;;;356253;150;857344;-62
2021/08/31 06:50:50;;;;;;;5.56;4.41;;;;;;;;;;347073;152;857850;-61
2021/08/31 06:51:51;;;;;;;6.78;4.09;;;;;;;;;;347938;153;857808;-62
2021/08/31 06:52:53;;;;;;;5.26;4.68;;;;;;;;;;354162;150;857262;-65
2021/08/31 06:53:55;;;;;;;5.97;4.66;;;;;;;;;;354901;150;859498;-60
2021/08/31 06:54:56;;;;;;;5.54;4.65;;;;;;;;;;356667;149;859306;-62
2021/08/31 06:55:58;;;;;;;5.09;4.06;;;;;;;;;;353828;151;865570;-61
2021/08/31 06:57:00;;;;;;;5.05;4.17;;;;;;;;;;355582;149;860028;-60
2021/08/31 06:58:02;;;;;;;5.70;4.46;;;;;;;;;;354398;149;858681;-61
2021/08/31 06:59:03;;;;;;;5.64;4.86;;;;;;;;;;355178;151;864734;-60
2021/08/31 07:00:06;;;;;;;5.80;4.96;;;;;;;;;;354634;150;857284;-65
2021/08/31 07:01:08;;;;;;;5.92;4.54;;;;;;;;;;355708;150;864694;-66
2021/08/31 07:02:09;;;;;;;6.04;4.08;;;;;;;;;;355432;150;858602;-62